Time;durP1;ratioP1;P1;durP2;ratioP2;P2;SDS_P1;SDS_P2;PMS_P1;PMS_P2;Temp;Humidity;BMP_temperature;BMP_pressure;BME280_temperature;BME280_humidity;BME280_pressure;Samples;Min_cycle;Max_cycle;Signal;HPM_P1;HPM_P2
2024/01/23 00:01:33;;;;;;;34.95;22.13;;;;;;;6.05;63.36;101738.91;5078485;28;20406;-80
2024/01/23 00:04:27;;;;;;;37.85;20.95;;;;;;;6.20;62.78;101732.78;5073581;28;20119;-79
2024/01/23 00:07:20;;;;;;;44.45;23.35;;;;;;;5.89;63.79;101735.28;5072456;28;20055;-79
2024/01/23 00:10:12;;;;;;;36.92;20.45;;;;;;;5.86;63.69;101730.38;5074850;28;20055;-81
2024/01/23 00:13:02;;;;;;;28.80;19.05;;;;;;;5.78;64.08;101730.03;5078368;28;20456;-79
2024/01/23 00:15:54;;;;;;;40.65;20.98;;;;;;;5.69;64.09;101732.38;5076136;28;20043;-81
2024/01/23 00:18:46;;;;;;;40.40;20.02;;;;;;;5.59;64.66;101737.69;5071837;28;20122;-80
2024/01/23 00:21:40;;;;;;;34.75;20.45;;;;;;;5.34;65.88;101735.59;5078316;28;20071;-81
2024/01/23 00:24:38;;;;;;;39.25;20.33;;;;;;;5.53;65.36;101715.28;5075103;28;20047;-78
2024/01/23 00:27:30;;;;;;;31.85;18.65;;;;;;;5.54;64.59;101722.28;5073302;28;20056;-79
2024/01/23 00:30:24;;;;;;;43.17;22.10;;;;;;;5.39;65.03;101726.72;5077113;28;20044;-78
2024/01/23 00:33:19;;;;;;;43.67;21.00;;;;;;;5.45;65.09;101715.72;5073936;28;20048;-80
2024/01/23 00:36:13;;;;;;;41.40;20.02;;;;;;;5.71;63.93;101724.84;5072261;28;20063;-79
2024/01/23 00:39:08;;;;;;;42.55;21.83;;;;;;;5.84;62.96;101716.31;5075889;28;20047;-79
2024/01/23 00:42:03;;;;;;;33.40;20.23;;;;;;;5.70;63.60;101707.03;5073008;28;20055;-79
2024/01/23 00:44:57;;;;;;;36.22;18.50;;;;;;;5.84;62.80;101718.22;5078035;28;20063;-80
2024/01/23 00:47:54;;;;;;;32.60;20.08;;;;;;;5.95;62.31;101734.25;5074897;28;20052;-80
2024/01/23 00:50:54;;;;;;;35.90;20.48;;;;;;;6.13;61.94;101734.91;5077586;28;20047;-81
2024/01/23 00:53:49;;;;;;;41.42;20.70;;;;;;;5.98;61.55;101719.44;5075457;28;20540;-80
2024/01/23 00:56:46;;;;;;;25.43;16.10;;;;;;;5.54;62.92;101716.06;5072955;28;20051;-78
2024/01/23 00:59:41;;;;;;;38.65;21.63;;;;;;;5.55;63.07;101725.78;5077085;28;20048;-79
2024/01/23 01:02:35;;;;;;;39.15;20.90;;;;;;;5.75;62.63;101736.75;5078044;28;20437;-79
2024/01/23 01:05:25;;;;;;;34.80;21.67;;;;;;;5.69;63.07;101724.28;5075020;28;20047;-80
2024/01/23 01:08:20;;;;;;;34.80;21.45;;;;;;;5.45;63.45;101720.31;5079583;28;20068;-79
2024/01/23 01:11:12;;;;;;;38.78;22.15;;;;;;;5.55;62.97;101717.69;5064346;28;20417;-81
2024/01/23 01:14:01;;;;;;;37.90;20.92;;;;;;;5.47;62.87;101702.00;5074059;28;20067;-79
2024/01/23 01:16:56;;;;;;;37.22;21.63;;;;;;;5.18;64.08;101715.75;5070524;28;20059;-79
2024/01/23 01:19:48;;;;;;;35.50;20.38;;;;;;;5.10;64.12;101723.47;5075814;28;20047;-81
2024/01/23 01:22:43;;;;;;;35.92;21.13;;;;;;;5.45;62.90;101714.91;5072152;28;20048;-80
2024/01/23 01:25:37;;;;;;;35.97;19.23;;;;;;;4.97;63.79;101719.31;5079053;28;20401;-80
2024/01/23 01:28:29;;;;;;;42.42;21.27;;;;;;;5.22;62.77;101720.66;5080153;28;20052;-80
2024/01/23 01:31:21;;;;;;;33.83;21.60;;;;;;;5.37;62.96;101702.72;5077615;28;20044;-79
2024/01/23 01:34:13;;;;;;;35.58;20.15;;;;;;;5.45;61.95;101706.81;5081057;28;20047;-79
2024/01/23 01:37:08;;;;;;;40.28;21.08;;;;;;;5.02;62.42;101716.69;5074948;28;20048;-79
2024/01/23 01:40:00;;;;;;;38.83;21.00;;;;;;;4.97;62.30;101729.28;5080840;28;20040;-78
2024/01/23 01:42:56;;;;;;;38.08;22.73;;;;;;;4.70;63.63;101742.69;5074462;28;20048;-78
2024/01/23 01:45:56;;;;;;;33.40;20.70;;;;;;;4.64;63.81;101741.00;5077974;28;20040;-79
2024/01/23 01:48:49;;;;;;;31.27;20.08;;;;;;;5.06;62.43;101733.97;5075748;28;20067;-78
2024/01/23 01:51:44;;;;;;;27.42;19.02;;;;;;;4.89;62.67;101724.31;5079504;28;20040;-81
2024/01/23 01:54:36;;;;;;;38.00;20.58;;;;;;;4.75;62.78;101715.81;5076148;28;20528;-80
2024/01/23 01:57:33;;;;;;;40.88;21.30;;;;;;;4.52;64.27;101719.56;5074747;28;20083;-80
2024/01/23 02:00:28;;;;;;;39.35;19.77;;;;;;;4.55;63.76;101704.81;5079636;28;20047;-79
2024/01/23 02:03:23;;;;;;;38.28;19.63;;;;;;;4.03;65.29;101701.69;5092920;28;20044;-79
2024/01/23 02:06:15;;;;;;;33.55;17.63;;;;;;;4.55;64.33;101720.97;5076868;28;20047;-79
2024/01/23 02:09:07;;;;;;;35.92;21.65;;;;;;;4.87;63.48;101703.03;5076679;28;20044;-79
2024/01/23 02:12:05;;;;;;;41.17;22.13;;;;;;;4.81;63.38;101698.66;5074123;28;20044;-80
2024/01/23 02:14:52;;;;;;;43.95;21.20;;;;;;;4.89;63.87;101700.06;5073215;28;20536;-79
2024/01/23 02:17:46;;;;;;;37.65;20.20;;;;;;;4.91;62.49;101708.72;5076639;28;20083;-81
2024/01/23 02:20:40;;;;;;;40.58;19.75;;;;;;;4.44;63.77;101717.31;5073878;28;20064;-79
2024/01/23 02:23:35;;;;;;;37.10;20.90;;;;;;;4.02;65.59;101726.94;5076940;28;20047;-78
2024/01/23 02:26:30;;;;;;;28.17;15.53;;;;;;;4.20;64.91;101735.59;5073823;28;20406;-80
2024/01/23 02:29:24;;;;;;;33.88;19.52;;;;;;;4.27;64.85;101736.22;5078153;28;20047;-78
2024/01/23 02:32:19;;;;;;;25.77;15.45;;;;;;;4.21;65.36;101742.59;5079544;28;20040;-79
2024/01/23 02:35:13;;;;;;;29.60;18.23;;;;;;;4.58;64.20;101752.78;5072579;28;20047;-80
2024/01/23 02:38:08;;;;;;;29.85;19.08;;;;;;;4.43;64.26;101744.50;5080009;28;20048;-79
2024/01/23 02:41:03;;;;;;;22.20;15.03;;;;;;;4.34;64.74;101767.53;5074220;28;20056;-79
2024/01/23 02:43:57;;;;;;;32.85;19.75;;;;;;;4.48;63.93;101760.72;5078422;28;20059;-78
2024/01/23 02:46:52;;;;;;;30.92;18.83;;;;;;;4.59;63.30;101752.53;5074202;28;20405;-80
2024/01/23 02:49:46;;;;;;;29.63;15.93;;;;;;;4.01;64.84;101738.81;5072669;28;20044;-79
2024/01/23 02:52:41;;;;;;;38.83;20.10;;;;;;;3.99;65.14;101736.34;5076732;28;20047;-78
2024/01/23 02:55:36;;;;;;;28.73;16.07;;;;;;;3.65;66.01;101738.25;5073702;28;20047;-78
2024/01/23 02:58:28;;;;;;;44.78;20.75;;;;;;;3.52;66.87;101756.53;5077513;28;20040;-79
2024/01/23 03:01:22;;;;;;;32.20;19.33;;;;;;;3.23;67.30;101764.66;5079289;28;20067;-78
2024/01/23 03:04:17;;;;;;;41.80;17.40;;;;;;;3.31;67.84;101763.44;5078193;28;20047;-78
2024/01/23 03:07:12;;;;;;;48.28;28.05;;;;;;;3.32;67.77;101771.25;5072897;28;20158;-79
2024/01/23 03:10:06;;;;;;;46.83;20.08;;;;;;;3.20;68.13;101781.22;5074330;28;20051;-79
2024/01/23 03:12:58;;;;;;;38.95;20.75;;;;;;;3.29;67.58;101782.50;5077784;28;20119;-80
2024/01/23 03:15:52;;;;;;;32.90;17.50;;;;;;;3.16;67.64;101777.41;5074972;28;20052;-81
2024/01/23 03:18:47;;;;;;;31.65;19.08;;;;;;;3.08;68.15;101771.59;5073018;28;20043;-78
2024/01/23 03:21:42;;;;;;;50.05;23.92;;;;;;;3.03;67.90;101761.56;5079048;28;20048;-81
2024/01/23 03:24:34;;;;;;;43.05;21.00;;;;;;;3.09;67.92;101765.19;5073219;28;20397;-80
2024/01/23 03:27:28;;;;;;;31.70;18.92;;;;;;;3.14;67.76;101762.59;5077491;28;20672;-80
2024/01/23 03:30:38;;;;;;;48.10;22.30;;;;;;;3.38;67.20;101774.88;5074959;28;20393;-78
2024/01/23 03:33:31;;;;;;;30.95;20.25;;;;;;;3.69;65.71;101776.22;5072402;28;20504;-79
2024/01/23 03:36:25;;;;;;;33.28;18.65;;;;;;;3.30;65.89;101775.25;5074397;28;20051;-79
2024/01/23 03:39:17;;;;;;;30.80;19.52;;;;;;;3.49;66.07;101789.31;5071614;28;20048;-80
2024/01/23 03:42:11;;;;;;;35.33;19.50;;;;;;;3.65;65.16;101785.84;5076702;28;20048;-80
2024/01/23 03:45:06;;;;;;;27.85;15.07;;;;;;;2.82;67.77;101791.75;5077799;28;20059;-79
2024/01/23 03:48:01;;;;;;;29.15;18.45;;;;;;;3.00;67.05;101778.97;5072190;28;20523;-79
2024/01/23 03:50:53;;;;;;;38.22;20.85;;;;;;;3.12;66.61;101780.81;5075834;28;20040;-79
2024/01/23 03:53:47;;;;;;;34.60;21.15;;;;;;;3.00;67.21;101787.03;5072287;28;20044;-79
2024/01/23 03:56:42;;;;;;;33.08;20.88;;;;;;;2.88;67.47;101788.97;5073603;28;20059;-80
2024/01/23 03:59:36;;;;;;;44.88;23.65;;;;;;;3.10;67.14;101799.84;5074248;28;20044;-78
2024/01/23 04:02:31;;;;;;;44.65;18.85;;;;;;;2.95;67.22;101795.00;5072232;28;20055;-78
2024/01/23 04:05:25;;;;;;;29.27;18.13;;;;;;;2.86;67.87;101792.91;5075145;28;20044;-79
2024/01/23 04:08:17;;;;;;;32.00;20.00;;;;;;;2.72;68.01;101778.13;5073569;28;20830;-79
2024/01/23 04:11:12;;;;;;;37.50;21.55;;;;;;;2.87;67.59;101779.25;5077018;28;20508;-80
2024/01/23 04:14:04;;;;;;;34.00;18.55;;;;;;;3.01;67.36;101777.09;5075053;28;20072;-79
2024/01/23 04:16:58;;;;;;;30.58;19.05;;;;;;;2.82;68.06;101771.09;5075660;28;20043;-79
2024/01/23 04:19:50;;;;;;;37.25;19.80;;;;;;;3.30;66.76;101776.06;5075878;28;20052;-79
2024/01/23 04:22:45;;;;;;;33.05;18.95;;;;;;;3.07;67.18;101786.09;5073209;28;20051;-79
2024/01/23 04:25:39;;;;;;;34.45;17.92;;;;;;;2.77;67.70;101778.22;5070550;28;20044;-79
2024/01/23 04:28:34;;;;;;;37.25;20.38;;;;;;;2.37;68.08;101772.81;5074556;28;20047;-79
2024/01/23 04:31:24;;;;;;;26.80;16.17;;;;;;;2.37;68.32;101784.38;5082933;28;20043;-79
2024/01/23 04:34:18;;;;;;;28.27;18.63;;;;;;;2.46;68.39;101782.94;5097611;28;20523;-80
2024/01/23 04:37:13;;;;;;;25.85;15.20;;;;;;;2.51;67.96;101788.44;5095919;28;20047;-78
2024/01/23 04:40:08;;;;;;;34.60;18.90;;;;;;;2.71;67.77;101796.09;5095957;28;20408;-80
2024/01/23 04:43:02;;;;;;;25.05;15.13;;;;;;;2.73;67.44;101801.25;5099166;28;20056;-80
2024/01/23 04:45:54;;;;;;;38.05;20.92;;;;;;;2.75;67.08;101831.34;5097175;28;20043;-80
2024/01/23 04:48:46;;;;;;;33.80;17.17;;;;;;;2.76;66.97;101806.94;5100715;28;20535;-79
2024/01/23 04:51:38;;;;;;;35.72;19.58;;;;;;;2.64;67.26;101798.13;5097980;28;20487;-79
2024/01/23 04:54:32;;;;;;;27.83;18.20;;;;;;;2.53;67.51;101815.88;5096443;28;20055;-79
2024/01/23 04:57:24;;;;;;;30.50;19.92;;;;;;;2.47;67.53;101816.81;5095688;28;20051;-79
2024/01/23 05:00:17;;;;;;;33.40;18.20;;;;;;;2.61;67.40;101812.00;5096736;28;20075;-80
2024/01/23 05:03:09;;;;;;;27.98;16.65;;;;;;;2.57;67.62;101822.41;5080280;28;20051;-78
2024/01/23 05:06:04;;;;;;;28.50;18.38;;;;;;;2.52;67.77;101838.41;5094995;28;20043;-80
2024/01/23 05:08:57;;;;;;;26.48;18.02;;;;;;;2.20;68.19;101825.53;5101782;28;20039;-78
2024/01/23 05:11:51;;;;;;;33.78;18.15;;;;;;;2.19;68.72;101834.63;5099964;28;20051;-79
2024/01/23 05:14:45;;;;;;;29.65;18.42;;;;;;;2.19;68.49;101840.81;5087093;28;20048;-79
2024/01/23 05:17:40;;;;;;;29.92;18.05;;;;;;;2.21;68.10;101836.03;5076266;28;20047;-78
2024/01/23 05:20:29;;;;;;;30.20;17.70;;;;;;;2.66;66.87;101843.50;5080316;28;20048;-78
2024/01/23 05:23:24;;;;;;;30.30;17.27;;;;;;;2.34;67.37;101848.41;5075978;28;20532;-80
2024/01/23 05:26:18;;;;;;;36.58;16.95;;;;;;;2.06;68.17;101859.81;5088166;28;20044;-78
2024/01/23 05:29:13;;;;;;;31.10;15.43;;;;;;;1.92;68.87;101853.03;5091446;28;20435;-79
2024/01/23 05:32:07;;;;;;;41.58;17.52;;;;;;;2.28;67.58;101868.16;5085496;28;20393;-80
2024/01/23 05:35:07;;;;;;;31.38;19.17;;;;;;;2.52;67.44;101867.09;5085606;28;20405;-79
2024/01/23 05:37:59;;;;;;;25.05;17.08;;;;;;;2.72;66.33;101862.19;5086243;28;20043;-80
2024/01/23 05:40:53;;;;;;;37.50;17.42;;;;;;;2.80;65.83;101869.06;5093661;28;20043;-78
2024/01/23 05:43:45;;;;;;;22.88;12.30;;;;;;;2.75;65.80;101868.94;5083918;28;20051;-78
2024/01/23 05:46:37;;;;;;;32.25;17.08;;;;;;;2.63;65.69;101870.84;5074509;28;20051;-80
2024/01/23 05:49:29;;;;;;;34.33;17.60;;;;;;;2.73;65.24;101879.94;5078104;28;20405;-79
2024/01/23 05:52:21;;;;;;;27.88;16.95;;;;;;;2.39;65.68;101889.59;5083699;28;20039;-80
2024/01/23 05:55:16;;;;;;;29.50;17.30;;;;;;;2.27;66.73;101891.47;5081733;28;20528;-81
2024/01/23 05:58:10;;;;;;;27.65;14.55;;;;;;;2.57;65.62;101894.88;5077590;28;20040;-78
2024/01/23 06:01:05;;;;;;;26.58;15.63;;;;;;;2.40;66.11;101885.88;5083678;28;20405;-79
2024/01/23 06:04:00;;;;;;;19.95;12.35;;;;;;;2.63;65.04;101886.94;5098975;28;20523;-78
2024/01/23 06:06:54;;;;;;;26.20;17.00;;;;;;;2.52;65.49;101896.63;5080326;28;20048;-78
2024/01/23 06:09:47;;;;;;;30.45;16.85;;;;;;;2.70;64.97;101906.44;5080072;28;20048;-78
2024/01/23 06:12:41;;;;;;;27.23;15.63;;;;;;;2.54;65.69;101918.69;5076956;28;20402;-80
2024/01/23 06:15:36;;;;;;;46.00;16.77;;;;;;;2.61;65.45;101902.47;5074265;28;20425;-81
2024/01/23 06:18:30;;;;;;;27.48;16.65;;;;;;;2.65;64.98;101901.75;5074140;28;20044;-81
2024/01/23 06:21:22;;;;;;;45.58;16.23;;;;;;;2.56;65.06;101898.63;5086464;28;20051;-81
2024/01/23 06:24:22;;;;;;;33.25;16.85;;;;;;;2.36;65.27;101908.88;5093975;28;20040;-80
2024/01/23 06:27:17;;;;;;;33.05;14.77;;;;;;;2.48;65.21;101901.66;5094247;28;20087;-81
2024/01/23 06:30:13;;;;;;;27.85;13.15;;;;;;;2.45;65.44;101914.72;5081786;28;20044;-80
2024/01/23 06:33:05;;;;;;;32.40;16.15;;;;;;;2.34;65.60;101908.28;5079023;28;20048;-80
2024/01/23 06:35:58;;;;;;;22.80;12.20;;;;;;;2.34;66.04;101910.13;5055923;28;20048;-80
2024/01/23 06:38:52;;;;;;;50.63;16.67;;;;;;;2.46;65.96;101919.03;5060105;28;20048;-80
2024/01/23 06:41:44;;;;;;;32.75;15.55;;;;;;;2.20;66.26;101920.25;5056855;28;20052;-81
2024/01/23 06:44:39;;;;;;;32.65;17.15;;;;;;;2.28;65.95;101930.69;5062246;28;20048;-80
2024/01/23 06:47:34;;;;;;;44.90;18.33;;;;;;;2.37;65.96;101923.94;5080547;28;20063;-80
2024/01/23 06:50:28;;;;;;;51.03;17.90;;;;;;;2.23;66.05;101935.94;5079760;28;20052;-81
2024/01/23 06:53:23;;;;;;;39.90;15.75;;;;;;;2.28;66.58;101940.59;5072592;28;20055;-79
2024/01/23 06:56:13;;;;;;;43.58;17.17;;;;;;;2.24;66.02;101940.22;5073267;28;20044;-80
2024/01/23 06:59:05;;;;;;;36.28;17.33;;;;;;;2.36;65.82;101933.03;5073028;28;20055;-80
2024/01/23 07:01:57;;;;;;;30.50;13.87;;;;;;;2.30;66.13;101939.31;5072772;28;20056;-79
2024/01/23 07:04:47;;;;;;;51.83;17.20;;;;;;;2.48;65.22;101947.28;5072775;28;20119;-79
2024/01/23 07:07:41;;;;;;;28.50;14.98;;;;;;;2.04;66.50;101953.94;5073111;28;20044;-81
2024/01/23 07:10:36;;;;;;;45.75;24.90;;;;;;;2.25;66.43;101952.59;5076128;28;20049;-79
2024/01/23 07:13:30;;;;;;;34.47;17.30;;;;;;;2.34;66.32;101961.94;5074468;28;20043;-79
2024/01/23 07:16:22;;;;;;;28.58;17.67;;;;;;;2.13;66.80;101941.03;5071941;28;20047;-81
2024/01/23 07:19:17;;;;;;;28.13;16.83;;;;;;;2.30;65.80;101958.09;5075711;28;20047;-80
2024/01/23 07:22:11;;;;;;;33.25;19.17;;;;;;;2.33;66.08;101963.00;5071324;28;20413;-81
2024/01/23 07:25:03;;;;;;;34.70;20.40;;;;;;;2.28;66.58;101965.56;5071424;28;20429;-79
2024/01/23 07:27:57;;;;;;;36.70;17.92;;;;;;;2.15;67.00;101963.88;5074360;28;20047;-79
2024/01/23 07:30:52;;;;;;;39.88;18.35;;;;;;;2.45;66.37;101971.91;5071971;28;20047;-78
2024/01/23 07:33:47;;;;;;;48.35;19.17;;;;;;;2.24;66.78;101966.22;5075534;28;20512;-82
2024/01/23 07:36:41;;;;;;;47.78;17.05;;;;;;;2.18;67.47;101989.47;5072890;28;20047;-80
2024/01/23 07:39:36;;;;;;;40.83;16.02;;;;;;;2.12;67.82;101991.19;5076709;28;20405;-81
2024/01/23 07:42:26;;;;;;;45.13;19.13;;;;;;;2.13;67.60;102000.06;5071082;28;20071;-78
2024/01/23 07:45:20;;;;;;;51.78;23.05;;;;;;;2.31;67.81;101983.88;5071592;28;20062;-79
2024/01/23 07:48:14;;;;;;;35.40;19.38;;;;;;;2.35;67.00;101982.38;5075479;28;20051;-78
2024/01/23 07:51:09;;;;;;;53.08;19.17;;;;;;;2.44;67.53;101996.28;5073130;28;20039;-79
2024/01/23 07:54:01;;;;;;;39.65;22.15;;;;;;;2.39;67.93;101998.81;5071089;28;20051;-83
2024/01/23 07:56:56;;;;;;;43.42;19.20;;;;;;;2.44;67.92;102028.47;5072469;28;20048;-82
2024/01/23 07:59:48;;;;;;;51.38;21.90;;;;;;;2.56;67.95;102038.22;5071849;28;20051;-83
2024/01/23 08:02:37;;;;;;;65.55;32.90;;;;;;;2.57;67.25;102031.81;5076350;28;20051;-80
2024/01/23 08:05:29;;;;;;;41.42;23.40;;;;;;;2.69;65.95;102031.84;5073454;28;20047;-81
2024/01/23 08:08:22;;;;;;;29.92;18.15;;;;;;;3.53;67.01;102045.91;5071221;28;20059;-79
2024/01/23 08:11:17;;;;;;;23.48;13.63;;;;;;;3.36;62.78;102049.28;5074839;28;20052;-82
2024/01/23 08:14:11;;;;;;;42.65;16.45;;;;;;;3.14;62.96;102047.44;5072415;28;20521;-82
2024/01/23 08:17:02;;;;;;;19.30;12.15;;;;;;;3.18;62.46;102044.03;5071432;28;20079;-82
2024/01/23 08:19:56;;;;;;;21.10;11.57;;;;;;;3.26;61.57;102054.44;5090530;28;20282;-82
2024/01/23 08:22:51;;;;;;;22.75;12.18;;;;;;;3.37;60.76;102047.44;5091490;28;20429;-80
2024/01/23 08:25:46;;;;;;;22.80;9.93;;;;;;;3.39;61.33;102048.03;5095116;28;20047;-81
2024/01/23 08:28:39;;;;;;;15.25;9.13;;;;;;;3.34;61.53;102072.91;5093570;28;20043;-83
2024/01/23 08:31:34;;;;;;;29.48;10.02;;;;;;;3.59;61.61;102069.16;5096581;28;20520;-80
2024/01/23 08:34:29;;;;;;;15.60;9.85;;;;;;;3.76;60.40;102089.72;5094147;28;20047;-83
2024/01/23 08:37:21;;;;;;;24.50;9.10;;;;;;;3.86;60.28;102091.78;5086215;28;20043;-81
2024/01/23 08:40:15;;;;;;;26.38;9.25;;;;;;;3.93;60.26;102086.28;5096232;28;20413;-82
2024/01/23 08:43:08;;;;;;;28.42;10.00;;;;;;;3.99;59.52;102096.94;5088420;28;20404;-82
2024/01/23 08:46:02;;;;;;;36.38;12.98;;;;;;;3.93;58.71;102087.13;5092827;28;20051;-81
2024/01/23 08:48:57;;;;;;;10.77;6.03;;;;;;;3.99;58.78;102083.47;5092849;28;20047;-81
2024/01/23 08:51:50;;;;;;;20.83;7.55;;;;;;;4.11;58.29;102080.78;5085007;28;20059;-83
2024/01/23 08:54:45;;;;;;;24.20;10.07;;;;;;;4.27;58.01;102085.38;5090769;28;20043;-81
2024/01/23 08:57:40;;;;;;;25.60;10.48;;;;;;;4.19;57.90;102089.28;5091730;28;20054;-81
2024/01/23 09:00:35;;;;;;;20.85;8.60;;;;;;;4.36;58.59;102092.03;5089917;28;20039;-81
2024/01/23 09:03:29;;;;;;;28.38;13.43;;;;;;;4.45;59.13;102106.75;5093513;28;20377;-85
2024/01/23 09:06:21;;;;;;;36.53;15.20;;;;;;;4.59;58.20;102115.34;5090646;28;20047;-81
2024/01/23 09:09:13;;;;;;;38.67;16.40;;;;;;;4.63;57.68;102093.06;5092631;28;20054;-83
2024/01/23 09:12:06;;;;;;;23.48;14.50;;;;;;;4.61;56.71;102087.13;5088880;28;20102;-82
2024/01/23 09:15:01;;;;;;;35.90;15.77;;;;;;;4.73;54.90;102085.19;5092945;28;20050;-82
2024/01/23 09:17:55;;;;;;;36.13;15.38;;;;;;;4.88;55.71;102087.31;5093648;28;20043;-82
2024/01/23 09:20:50;;;;;;;40.28;19.90;;;;;;;4.85;55.02;102095.91;5100455;28;20432;-80
2024/01/23 09:23:44;;;;;;;30.05;17.27;;;;;;;4.96;55.31;102096.91;5101724;28;20063;-82
2024/01/23 09:26:39;;;;;;;38.17;15.32;;;;;;;5.00;54.52;102108.81;5096344;28;20040;-79
2024/01/23 09:29:33;;;;;;;32.35;15.77;;;;;;;5.15;53.36;102104.50;5101570;28;20052;-80
2024/01/23 09:32:28;;;;;;;23.23;14.20;;;;;;;5.16;53.12;102103.44;5094031;28;20043;-79
2024/01/23 09:35:22;;;;;;;23.88;13.15;;;;;;;5.29;50.48;102109.56;5094328;28;20524;-78
2024/01/23 09:38:17;;;;;;;16.08;9.75;;;;;;;5.28;49.06;102119.56;5098223;28;20051;-76
2024/01/23 09:41:13;;;;;;;20.88;11.05;;;;;;;5.40;47.96;102127.53;5096642;28;20523;-78
2024/01/23 09:44:10;;;;;;;23.83;12.77;;;;;;;5.56;48.29;102121.31;5091189;28;20051;-77
2024/01/23 09:47:05;;;;;;;24.27;15.57;;;;;;;5.70;49.00;102128.00;5096209;28;20063;-77
2024/01/23 09:49:57;;;;;;;21.40;12.93;;;;;;;5.74;48.70;102122.94;5097187;28;20047;-76
2024/01/23 09:52:52;;;;;;;20.08;12.57;;;;;;;5.88;49.04;102118.84;5100779;28;20047;-77
2024/01/23 09:55:47;;;;;;;19.70;12.52;;;;;;;6.04;47.84;102136.88;5092720;28;20043;-78
2024/01/23 09:58:40;;;;;;;21.90;12.85;;;;;;;6.27;46.52;102133.94;5091746;28;20039;-79
2024/01/23 10:01:37;;;;;;;24.83;14.15;;;;;;;6.31;46.47;102128.84;5098520;28;20047;-77
2024/01/23 10:04:34;;;;;;;23.90;13.00;;;;;;;6.55;46.17;102124.00;5096111;28;20409;-78
2024/01/23 10:07:25;;;;;;;21.23;11.88;;;;;;;6.73;46.63;102132.56;5088548;28;20055;-80
2024/01/23 10:10:20;;;;;;;22.80;12.90;;;;;;;6.91;46.25;102133.28;5094974;28;20050;-78
2024/01/23 10:13:16;;;;;;;15.75;11.10;;;;;;;7.20;45.13;102123.81;5089889;28;20051;-77
2024/01/23 10:16:09;;;;;;;20.15;12.55;;;;;;;7.47;45.12;102124.56;5096713;28;20063;-80
2024/01/23 10:19:01;;;;;;;18.77;12.02;;;;;;;7.57;44.19;102124.63;5095265;28;20539;-77
2024/01/23 10:21:57;;;;;;;25.63;11.75;;;;;;;7.80;44.16;102119.91;5091751;28;20046;-78
2024/01/23 10:24:54;;;;;;;16.90;11.82;;;;;;;8.20;42.95;102120.09;5096370;28;20039;-77
2024/01/23 10:27:49;;;;;;;19.65;11.93;;;;;;;8.53;42.30;102121.63;5094124;28;20417;-77
2024/01/23 10:30:45;;;;;;;18.63;10.57;;;;;;;8.49;43.14;102124.03;5097354;28;20543;-78
2024/01/23 10:33:37;;;;;;;;;;;;;;;8.62;43.58;102127.34;5095418;28;20034;-78
2024/01/23 10:36:32;;;;;;;22.77;12.23;;;;;;;8.80;43.03;102121.38;5092665;28;20296;-78
2024/01/23 10:39:27;;;;;;;20.70;12.13;;;;;;;9.00;42.47;102124.94;5096030;28;20527;-77
2024/01/23 10:42:20;;;;;;;20.45;11.35;;;;;;;9.17;41.47;102130.13;5093900;28;20118;-78
2024/01/23 10:45:15;;;;;;;17.05;11.70;;;;;;;9.44;42.02;102127.97;5096896;28;20051;-78
2024/01/23 10:48:09;;;;;;;17.80;12.45;;;;;;;9.73;41.68;102124.66;5094722;28;20050;-77
2024/01/23 10:51:10;;;;;;;20.95;13.20;;;;;;;9.66;41.99;102124.91;5086666;28;20051;-78
2024/01/23 10:54:15;;;;;;;26.08;13.45;;;;;;;9.85;42.80;102125.19;5095710;28;20043;-78
2024/01/23 10:57:12;;;;;;;19.30;12.27;;;;;;;9.65;42.32;102126.00;5092841;28;20059;-77
2024/01/23 11:00:11;;;;;;;25.85;15.23;;;;;;;9.98;41.96;102118.34;5095932;28;20062;-77
2024/01/23 11:03:06;;;;;;;18.10;13.85;;;;;;;10.02;41.47;102117.50;5093579;28;20047;-78
2024/01/23 11:06:03;;;;;;;22.07;12.27;;;;;;;10.23;40.86;102118.28;5096146;28;20420;-78
2024/01/23 11:09:11;;;;;;;19.73;13.80;;;;;;;10.41;41.28;102109.50;5094964;28;20047;-78
2024/01/23 11:12:12;;;;;;;22.73;13.93;;;;;;;10.66;40.30;102113.97;5097469;28;20516;-77
2024/01/23 11:15:14;;;;;;;22.08;13.80;;;;;;;10.78;40.29;102109.00;5094268;28;20047;-77
2024/01/23 11:18:29;;;;;;;21.45;13.13;;;;;;;10.89;40.12;102109.75;5092510;28;20043;-79
2024/01/23 11:21:26;;;;;;;20.80;14.05;;;;;;;11.12;40.04;102123.44;5094513;28;20428;-77
2024/01/23 11:24:44;;;;;;;23.10;14.15;;;;;;;11.21;40.38;102122.84;5091903;28;20032;-77
2024/01/23 11:27:39;;;;;;;21.48;13.52;;;;;;;11.17;39.33;102116.34;5094865;28;20040;-78
2024/01/23 11:30:34;;;;;;;16.40;11.02;;;;;;;11.27;39.99;102116.25;5093276;28;20043;-78
2024/01/23 11:33:28;;;;;;;19.65;13.55;;;;;;;11.37;40.10;102106.09;5096389;28;20043;-81
2024/01/23 11:36:29;;;;;;;24.27;14.52;;;;;;;11.61;40.17;102095.22;5088192;28;20043;-79
2024/01/23 11:39:25;;;;;;;21.27;14.55;;;;;;;11.63;39.74;102095.75;5094316;28;20044;-77
2024/01/23 11:42:19;;;;;;;35.55;15.98;;;;;;;11.92;38.92;102096.56;5085446;28;20509;-78
2024/01/23 11:45:34;;;;;;;18.93;11.93;;;;;;;11.89;38.78;102094.41;5089526;28;20040;-78
2024/01/23 11:48:29;;;;;;;22.10;14.38;;;;;;;12.08;38.20;102094.47;5093747;28;20028;-77
2024/01/23 11:51:24;;;;;;;21.17;13.47;;;;;;;12.02;38.36;102100.25;5091800;28;20052;-77
2024/01/23 11:54:25;;;;;;;21.55;14.15;;;;;;;12.11;38.90;102101.25;5094599;28;20261;-78
2024/01/23 11:57:24;;;;;;;26.63;15.30;;;;;;;12.22;37.77;102097.28;5091578;28;20036;-79
2024/01/23 12:00:14;;;;;;;20.05;14.20;;;;;;;11.97;39.09;102093.78;5095755;28;20066;-79
2024/01/23 12:03:13;;;;;;;24.17;14.80;;;;;;;12.01;38.03;102099.44;5093277;28;20040;-79
2024/01/23 12:06:07;;;;;;;26.25;15.93;;;;;;;12.23;37.77;102093.47;5090582;28;20044;-79
2024/01/23 12:08:59;;;;;;;21.33;13.68;;;;;;;12.38;37.93;102087.81;5094627;28;20036;-80
2024/01/23 12:11:55;;;;;;;18.42;14.35;;;;;;;12.41;38.14;102081.75;5092224;28;20051;-77
2024/01/23 12:14:50;;;;;;;22.45;13.82;;;;;;;12.24;37.21;102081.47;5095361;28;20040;-78
2024/01/23 12:17:48;;;;;;;21.73;13.20;;;;;;;12.36;36.97;102073.63;5093263;28;20052;-79
2024/01/23 12:20:48;;;;;;;18.15;13.55;;;;;;;12.34;37.85;102073.13;5096722;28;20048;-79
2024/01/23 12:23:42;;;;;;;29.75;13.95;;;;;;;12.56;36.77;102064.34;5093924;28;20509;-78
2024/01/23 12:26:32;;;;;;;19.10;13.73;;;;;;;12.59;37.46;102056.41;5091258;28;20052;-79
2024/01/23 12:29:26;;;;;;;18.83;12.52;;;;;;;12.53;35.85;102063.03;5091253;28;20036;-79
2024/01/23 12:32:17;;;;;;;;;;;;;;;12.52;35.78;102060.59;5087801;28;20040;-79
2024/01/23 12:35:15;;;;;;;15.95;11.32;;;;;;;12.74;34.90;102047.16;5085046;28;20300;-79
2024/01/23 12:38:09;;;;;;;22.52;13.35;;;;;;;12.93;36.60;102044.41;5094024;28;20040;-79
2024/01/23 12:41:04;;;;;;;16.73;12.43;;;;;;;12.75;36.55;102051.50;5091986;28;20044;-79
2024/01/23 12:44:03;;;;;;;18.48;11.65;;;;;;;12.56;36.33;102047.97;5095242;28;20044;-78
2024/01/23 12:46:59;;;;;;;22.20;13.23;;;;;;;12.90;35.56;102045.00;5091938;28;20032;-79
2024/01/23 12:49:54;;;;;;;19.75;12.95;;;;;;;12.49;36.33;102048.38;5090749;28;20044;-78
2024/01/23 12:52:49;;;;;;;26.52;13.43;;;;;;;12.84;35.52;102053.28;5094193;28;20040;-79
2024/01/23 12:55:43;;;;;;;19.00;12.20;;;;;;;12.88;34.89;102053.50;5093572;28;20497;-79
2024/01/23 12:58:40;;;;;;;19.58;11.15;;;;;;;13.07;33.65;102045.25;5099163;28;20036;-79
2024/01/23 13:01:35;;;;;;;21.75;11.93;;;;;;;13.23;33.64;102052.09;5097150;28;20044;-79
2024/01/23 13:04:27;;;;;;;23.90;13.07;;;;;;;13.10;33.65;102036.47;5099519;28;20043;-79
2024/01/23 13:07:22;;;;;;;17.73;11.98;;;;;;;13.03;34.25;102046.97;5094756;28;20043;-79
2024/01/23 13:10:16;;;;;;;15.97;9.63;;;;;;;12.86;34.06;102048.31;5095665;28;20036;-78
2024/01/23 13:13:11;;;;;;;23.03;12.90;;;;;;;13.28;34.24;102050.09;5098660;28;20048;-79
2024/01/23 13:16:05;;;;;;;12.75;9.27;;;;;;;13.23;33.01;102049.38;5096070;28;20427;-78
2024/01/23 13:18:55;;;;;;;18.17;11.80;;;;;;;13.36;33.81;102040.38;5094471;28;20420;-78
2024/01/23 13:21:48;;;;;;;21.70;12.98;;;;;;;13.25;34.54;102038.97;5097995;28;20051;-79